Detall de PIREP

Printer-friendly versionPDF version

[2012/10/07 10:51:00]
Flight IATA:CT1003
Pilot Number:042
Company ICAO:CAT
Aircraft Type:B738/F
PAX:102
Departing Airport: LEPA
Destination Airport: DTTJ
Alternate Airport:DTTA
Online: VATSIM
Route:OSGAL UN859 GENIO UN855 ALR UA31 BNA UJ9 BTN UJ10 TBS UP128 KIRAS
Flight Level:F340
No Slew and time accel
No pause
Crash detect
Detect pilot in Cockpit between each 30 and 45 minutes
10:51 Zero fuel Weight: 115600 Lbs, Fuel Weight: 46020 Lbs
10:51 VATSIM:LEPA 071030Z VRB05KT 9999 FEW015 SCT020 26/19 Q1020 NOSIG
10:51 VATSIM:DTTJ 071000Z 24008KT 9999 FEW026TCU 30/21 Q1019 NOSIG
10:52 VOICE CATALONIAN/CPT LEPA
11:05 Parking Brakes off
11:17 Take-off
11:17 Take off Weight: 160518 Lbs
11:17 Wind: 222º @ 005 Knots Heading: 238º
11:17 POS N39º 32´ 59´´ E002º 42´ 59´´
11:17 Gear Up: 176 Knots
11:17 Flaps:5 at 176 Knots
11:17 Flaps:4 at 178 Knots
11:19 Flaps:3 at 158 Knots
11:20 Flaps:2 at 168 Knots
11:21 Flaps:1 at 202 Knots
11:21 Flaps:0 at 214 Knots
11:32 Wind:226º@020 Knots Heading: 167º Ground Speed: 436 Knots Altitude 25721 ft
11:47 Wind:359º@015 Knots Heading: 104º Ground Speed: 473 Knots Altitude 33257 ft
12:02 Wind:271º@034 Knots Heading: 113º Ground Speed: 507 Knots Altitude 33320 ft
12:17 Wind:359º@016 Knots Heading: 116º Ground Speed: 484 Knots Altitude 33320 ft
12:32 Wind:224º@011 Knots Heading: 128º Ground Speed: 336 Knots Altitude 14858 ft
12:45 Flaps:1 at 210 Knots
12:47 Wind:259º@012 Knots Heading: 341º Ground Speed: 220 Knots Altitude 6925 ft
12:56 Flaps:2 at 169 Knots
12:56 Flaps:3 at 169 Knots
12:57 Gear Down: 173 Knots
12:57 Flaps:4 at 171 Knots
12:57 Flaps:5 at 168 Knots
12:57 Flaps:6 at 158 Knots
12:58 Flaps:7 at 150 Knots
12:58 Flaps:8 at 146 Knots
13:00 TouchDown:Rate -239 ft/min Speed: 126 Knots
13:00 VATSIM:DTTJ 071230Z 24010KT 9999 FEW040 32/19 Q1018 NOSIG
13:01 Land
13:01 Wind:240º@010 Knots
13:01 Heading: 088º
13:01 Flight Duration: 01:44
13:01 Landing Weight: 149668 Lbs
13:01 POS N33º 52´ 31´´ E010º 46´ 32´´
13:02 Parking brakes on
13:02 Block to Block Duration: 01:57
13:02 Final Fuel: 33939 Lbls
13:02 Spent Fuel: 12081 Lbls
13:02 Flight Length: 527 NM
13:02 TOD Land Length: 527 NM

Exportar CSV

Powered by Drupal - Modified by Danger4k